createdAt,value
2022-11-24T00:02:32.417Z,0.0
2022-11-24T00:07:24.721Z,0.0
2022-11-24T00:12:31.077Z,0.0
2022-11-24T00:17:51.454Z,0.0
2022-11-24T00:23:03.851Z,0.0
2022-11-24T00:28:10.358Z,0.0
2022-11-24T00:32:46.646Z,0.0
2022-11-24T00:38:03.069Z,0.0
2022-11-24T00:43:09.477Z,0.0
2022-11-24T00:48:52.979Z,0.0
2022-11-24T00:54:00.383Z,0.0
2022-11-24T00:59:06.734Z,0.0
2022-11-24T01:09:20.109Z,0.0
2022-11-24T01:14:27.582Z,0.0
2022-11-24T01:19:37.980Z,0.0
2022-11-24T01:24:44.383Z,0.0
2022-11-24T01:29:46.755Z,0.0
2022-11-24T01:34:43.107Z,0.0
2022-11-24T01:39:48.508Z,0.0
2022-11-24T01:45:04.901Z,0.0
2022-11-24T01:50:02.269Z,0.0
2022-11-24T01:55:17.787Z,0.0
2022-11-24T02:00:15.146Z,0.0
2022-11-24T02:06:05.631Z,0.0
2022-11-24T02:11:33.083Z,0.0
2022-11-24T02:16:23.486Z,0.0
2022-11-24T02:21:29.789Z,0.0
2022-11-24T02:26:32.149Z,0.0
2022-11-24T02:31:38.617Z,0.0
2022-11-24T02:37:22.039Z,0.0
2022-11-24T02:42:29.399Z,0.0
2022-11-24T02:48:48.169Z,0.0
2022-11-24T02:52:42.371Z,0.0
2022-11-24T02:57:48.743Z,0.0
2022-11-24T03:03:15.216Z,0.0
2022-11-24T03:09:18.528Z,0.0
2022-11-24T03:14:29.653Z,0.0
2022-11-24T03:20:28.145Z,0.0
2022-11-24T03:24:32.786Z,0.0
2022-11-24T03:29:48.846Z,0.0
2022-11-24T03:34:55.327Z,0.0
2022-11-24T03:40:01.728Z,0.0
2022-11-24T03:45:44.783Z,0.0
2022-11-24T03:50:14.458Z,0.0
2022-11-24T03:55:11.006Z,0.0
2022-11-24T04:00:31.395Z,0.0
2022-11-24T04:05:33.776Z,0.0
2022-11-24T04:11:40.480Z,0.0
2022-11-24T04:16:20.989Z,0.0
2022-11-24T04:21:28.411Z,0.0
2022-11-24T04:26:34.803Z,0.0
2022-11-24T04:31:41.275Z,0.0
2022-11-24T04:37:15.624Z,0.0
2022-11-24T04:41:57.948Z,0.0
2022-11-24T04:47:34.436Z,0.0
2022-11-24T04:52:41.863Z,0.0
2022-11-24T04:58:15.272Z,0.0
2022-11-24T05:02:44.624Z,0.0
2022-11-24T05:07:51.040Z,0.0
2022-11-24T05:12:57.353Z,0.0
2022-11-24T05:23:09.046Z,0.0
2022-11-24T05:28:16.430Z,0.0
2022-11-24T05:33:22.840Z,0.0
2022-11-24T05:38:29.253Z,0.0
2022-11-24T05:43:35.605Z,0.0
2022-11-24T06:00:48.001Z,0.0
2022-11-24T06:06:15.389Z,0.0
2022-11-24T06:11:01.873Z,0.0
2022-11-24T06:15:58.424Z,0.0
2022-11-24T06:21:14.838Z,0.0
2022-11-24T06:26:25.244Z,0.0
2022-11-24T06:31:51.711Z,0.0
2022-11-24T06:37:02.041Z,0.0
2022-11-24T06:41:40.370Z,0.0
2022-11-24T06:46:36.727Z,0.0
2022-11-24T06:51:53.283Z,0.0
2022-11-24T06:56:49.741Z,0.0
2022-11-24T07:02:10.169Z,0.0
2022-11-24T07:07:12.670Z,0.0
2022-11-24T07:12:18.933Z,0.0
2022-11-24T07:17:25.321Z,0.0
2022-11-24T07:22:21.681Z,5.0
2022-11-24T07:28:12.124Z,5.0
2022-11-24T07:33:19.569Z,10.0
2022-11-24T07:38:26.059Z,15.0
2022-11-24T07:43:32.528Z,15.0
2022-11-24T07:48:38.922Z,15.0
2022-11-24T07:53:45.338Z,35.0
2022-11-24T07:58:53.097Z,45.0
2022-11-24T08:04:02.118Z,35.0
2022-11-24T08:09:08.064Z,35.0
2022-11-24T08:14:38.426Z,40.0
2022-11-24T08:19:20.747Z,55.0
2022-11-24T08:24:28.720Z,55.0
2022-11-24T08:29:35.068Z,50.0
2022-11-24T08:34:41.484Z,50.0
2022-11-24T08:39:37.889Z,55.0
2022-11-24T08:46:06.588Z,70.0
2022-11-24T08:50:00.624Z,80.0
2022-11-24T08:55:07.038Z,85.0
2022-11-24T09:00:03.383Z,80.0
2022-11-24T09:05:53.861Z,60.0
2022-11-24T09:11:01.409Z,60.0
2022-11-24T09:16:27.924Z,80.0
2022-11-24T09:21:18.178Z,130.0
2022-11-24T09:26:20.566Z,135.0
2022-11-24T09:31:27.291Z,115.0
2022-11-24T09:36:23.607Z,130.0
2022-11-24T09:41:40.027Z,115.0
2022-11-24T09:46:46.440Z,175.0
2022-11-24T09:52:06.926Z,225.0
2022-11-24T09:57:03.310Z,135.0
2022-11-24T10:01:55.794Z,160.0
2022-11-24T10:07:02.041Z,225.0
2022-11-24T10:12:18.458Z,215.0
2022-11-24T10:17:24.804Z,190.0
2022-11-24T10:22:31.298Z,320.0
2022-11-24T10:39:16.736Z,390.0
2022-11-24T10:45:55.278Z,340.0
2022-11-24T10:48:52.406Z,130.0
2022-11-24T10:53:59.961Z,105.0
2022-11-24T10:59:06.237Z,160.0
2022-11-24T11:09:56.143Z,230.0
2022-11-24T11:15:03.524Z,185.0
2022-11-24T11:20:09.882Z,200.0
2022-11-24T11:25:44.335Z,285.0
2022-11-24T11:35:29.076Z,485.0
2022-11-24T11:40:39.457Z,2475.0
2022-11-24T11:45:45.978Z,2205.0
2022-11-24T11:51:22.767Z,1320.0
2022-11-24T11:56:17.675Z,285.0
2022-11-24T12:01:21.078Z,390.0
2022-11-24T12:06:06.379Z,225.0
2022-11-24T12:11:13.752Z,290.0
2022-11-24T12:16:20.192Z,260.0
2022-11-24T12:21:30.568Z,615.0
2022-11-24T12:26:33.053Z,300.0
2022-11-24T12:32:23.524Z,185.0
2022-11-24T12:36:47.433Z,610.0
2022-11-24T12:41:53.767Z,805.0
2022-11-24T12:47:00.373Z,1685.0
2022-11-24T12:52:06.665Z,470.0
2022-11-24T12:57:14.590Z,320.0
2022-11-24T13:02:25.118Z,130.0
2022-11-24T13:07:29.030Z,180.0
2022-11-24T13:12:35.343Z,315.0
2022-11-24T13:18:05.230Z,1545.0
2022-11-24T13:22:48.240Z,1695.0
2022-11-24T13:28:00.183Z,1610.0
2022-11-24T13:33:02.723Z,1490.0
2022-11-24T13:38:09.235Z,1580.0
2022-11-24T13:43:15.594Z,1390.0
2022-11-24T13:48:22.677Z,1090.0
2022-11-24T13:53:32.478Z,220.0
2022-11-24T13:58:36.411Z,1230.0
2022-11-24T14:03:55.483Z,1110.0
2022-11-24T14:08:49.282Z,945.0
2022-11-24T14:13:55.651Z,965.0
2022-11-24T14:19:36.115Z,825.0
2022-11-24T14:24:48.002Z,610.0
2022-11-24T14:29:39.849Z,720.0
2022-11-24T14:35:30.412Z,545.0
2022-11-24T14:40:37.774Z,240.0
2022-11-24T14:46:10.790Z,120.0
2022-11-24T14:50:54.124Z,90.0
2022-11-24T14:56:00.530Z,70.0
2022-11-24T15:01:07.042Z,60.0
2022-11-24T15:06:13.310Z,45.0
2022-11-24T15:11:23.714Z,30.0
2022-11-24T15:16:26.220Z,25.0
2022-11-24T15:21:32.638Z,15.0
2022-11-24T15:26:43.072Z,10.0
2022-11-24T15:31:52.850Z,5.0
2022-11-24T15:36:51.780Z,5.0
2022-11-24T15:41:58.178Z,0.0
2022-11-24T15:47:10.309Z,0.0
2022-11-24T15:52:12.614Z,0.0
2022-11-24T15:57:19.004Z,0.0
2022-11-24T16:02:15.437Z,0.0
2022-11-24T16:07:35.783Z,0.0
2022-11-24T16:12:42.188Z,0.0
2022-11-24T16:17:44.635Z,0.0
2022-11-24T16:22:51.135Z,0.0
2022-11-24T16:27:57.556Z,0.0
2022-11-24T16:33:03.879Z,0.0
2022-11-24T16:38:11.832Z,0.0
2022-11-24T16:43:18.312Z,0.0
2022-11-24T16:48:24.669Z,0.0
2022-11-24T16:53:31.168Z,0.0
2022-11-24T16:58:39.159Z,0.0
2022-11-24T17:03:49.506Z,0.0
2022-11-24T17:08:51.945Z,0.0
2022-11-24T17:13:58.360Z,0.0
2022-11-24T17:19:41.823Z,0.0
2022-11-24T17:24:53.180Z,0.0
2022-11-24T17:29:45.552Z,0.0
2022-11-24T17:34:51.898Z,0.0
2022-11-24T17:40:27.780Z,0.0
2022-11-24T17:45:17.717Z,0.0
2022-11-24T17:50:11.104Z,0.0
2022-11-24T17:55:27.522Z,0.0
2022-11-24T18:00:34.097Z,0.0
2022-11-24T18:05:30.444Z,0.0
2022-11-24T18:10:50.845Z,0.0
2022-11-24T18:16:27.350Z,0.0
2022-11-24T18:21:38.686Z,0.0
2022-11-24T18:26:41.054Z,0.0
2022-11-24T18:32:15.621Z,0.0
2022-11-24T18:36:57.842Z,0.0
2022-11-24T18:41:50.179Z,0.0
2022-11-24T18:47:10.601Z,0.0
2022-11-24T18:52:12.993Z,0.0
2022-11-24T18:57:19.338Z,0.0
2022-11-24T19:02:25.760Z,0.0
2022-11-24T19:07:32.238Z,0.0
2022-11-24T19:12:42.480Z,0.0
2022-11-24T19:18:08.985Z,0.0
2022-11-24T19:22:55.369Z,0.0
2022-11-24T19:27:57.724Z,0.0
2022-11-24T19:33:08.108Z,0.0
2022-11-24T19:38:00.476Z,0.0
2022-11-24T19:43:19.874Z,0.0
2022-11-24T19:48:23.226Z,0.0
2022-11-24T19:53:29.611Z,0.0
2022-11-24T19:58:56.011Z,0.0
2022-11-24T20:03:42.443Z,0.0
2022-11-24T20:08:48.843Z,0.0
2022-11-24T20:19:03.158Z,0.0
2022-11-24T20:24:09.623Z,0.0
2022-11-24T20:29:19.993Z,0.0
2022-11-24T20:39:27.840Z,0.0
2022-11-24T20:44:35.479Z,0.0
2022-11-24T20:49:41.809Z,0.0
2022-11-24T20:54:52.193Z,0.0
2022-11-24T20:59:54.551Z,0.0
2022-11-24T21:05:04.031Z,0.0
2022-11-24T21:10:30.519Z,0.0
2022-11-24T21:15:06.803Z,0.0
2022-11-24T21:20:23.218Z,0.0
2022-11-24T21:25:19.608Z,0.0
2022-11-24T21:30:36.038Z,0.0
2022-11-24T21:35:56.457Z,0.0
2022-11-24T21:40:50.285Z,0.0
2022-11-24T21:45:55.349Z,0.0
2022-11-24T21:51:01.557Z,0.0
2022-11-24T21:56:07.931Z,0.0
2022-11-24T22:01:14.529Z,0.0
2022-11-24T22:06:21.412Z,0.0
2022-11-24T22:11:27.824Z,0.0
2022-11-24T22:16:34.246Z,0.0
2022-11-24T22:21:40.663Z,0.0
2022-11-24T22:26:47.071Z,0.0
2022-11-24T22:31:53.636Z,0.0
2022-11-24T22:37:03.936Z,0.0
2022-11-24T22:42:26.355Z,0.0
2022-11-24T22:48:06.868Z,0.0
2022-11-24T22:53:14.350Z,0.0
2022-11-24T22:58:20.726Z,0.0
2022-11-24T23:04:39.274Z,0.0
2022-11-24T23:08:33.492Z,0.0
2022-11-24T23:13:39.858Z,0.0
2022-11-24T23:18:49.806Z,0.0
2022-11-24T23:23:52.778Z,0.0
2022-11-24T23:28:59.253Z,0.0
2022-11-24T23:34:09.657Z,0.0
2022-11-24T23:39:12.058Z,0.0
2022-11-24T23:49:23.777Z,0.0
2022-11-24T23:54:55.342Z,0.0
2022-11-24T23:59:37.737Z,0.0
